sensor_id;sensor_type;location;lat;lon;timestamp;P1;durP1;ratioP1;P2;durP2;ratioP2
44810;SDS011;30526;52.184;4.476;2023-05-07T00:01:59;30.05;;;23.10;;
44810;SDS011;30526;52.184;4.476;2023-05-07T00:04:25;31.75;;;21.10;;
44810;SDS011;30526;52.184;4.476;2023-05-07T00:06:53;28.92;;;21.67;;
44810;SDS011;30526;52.184;4.476;2023-05-07T00:09:19;30.02;;;21.80;;
44810;SDS011;30526;52.184;4.476;2023-05-07T00:11:45;36.03;;;21.25;;
44810;SDS011;30526;52.184;4.476;2023-05-07T00:14:11;36.25;;;21.17;;
44810;SDS011;30526;52.184;4.476;2023-05-07T00:16:37;32.30;;;21.83;;
44810;SDS011;30526;52.184;4.476;2023-05-07T00:19:03;30.92;;;20.50;;
44810;SDS011;30526;52.184;4.476;2023-05-07T00:21:29;31.30;;;21.15;;
44810;SDS011;30526;52.184;4.476;2023-05-07T00:23:55;33.38;;;20.90;;
44810;SDS011;30526;52.184;4.476;2023-05-07T00:26:21;30.90;;;20.55;;
44810;SDS011;30526;52.184;4.476;2023-05-07T00:28:47;31.60;;;21.15;;
44810;SDS011;30526;52.184;4.476;2023-05-07T00:31:13;35.13;;;22.67;;
44810;SDS011;30526;52.184;4.476;2023-05-07T00:33:39;38.65;;;25.42;;
44810;SDS011;30526;52.184;4.476;2023-05-07T00:36:05;35.30;;;24.98;;
44810;SDS011;30526;52.184;4.476;2023-05-07T00:38:31;42.53;;;27.30;;
44810;SDS011;30526;52.184;4.476;2023-05-07T00:40:57;38.70;;;27.77;;
44810;SDS011;30526;52.184;4.476;2023-05-07T00:43:23;39.03;;;26.70;;
44810;SDS011;30526;52.184;4.476;2023-05-07T00:45:49;46.42;;;28.80;;
44810;SDS011;30526;52.184;4.476;2023-05-07T00:48:16;42.38;;;28.08;;
44810;SDS011;30526;52.184;4.476;2023-05-07T00:50:42;40.83;;;28.52;;
44810;SDS011;30526;52.184;4.476;2023-05-07T00:53:08;43.70;;;28.23;;
44810;SDS011;30526;52.184;4.476;2023-05-07T00:55:35;40.55;;;29.58;;
44810;SDS011;30526;52.184;4.476;2023-05-07T00:58:01;45.17;;;30.05;;
44810;SDS011;30526;52.184;4.476;2023-05-07T01:00:27;42.13;;;28.48;;
44810;SDS011;30526;52.184;4.476;2023-05-07T01:02:53;41.05;;;28.55;;
44810;SDS011;30526;52.184;4.476;2023-05-07T01:05:20;46.50;;;31.70;;
44810;SDS011;30526;52.184;4.476;2023-05-07T01:07:46;42.17;;;30.77;;
44810;SDS011;30526;52.184;4.476;2023-05-07T01:10:13;45.05;;;30.98;;
44810;SDS011;30526;52.184;4.476;2023-05-07T01:12:39;45.17;;;30.13;;
44810;SDS011;30526;52.184;4.476;2023-05-07T01:15:06;44.97;;;29.97;;
44810;SDS011;30526;52.184;4.476;2023-05-07T01:17:34;46.22;;;31.05;;
44810;SDS011;30526;52.184;4.476;2023-05-07T01:20:00;39.30;;;22.10;;
44810;SDS011;30526;52.184;4.476;2023-05-07T01:22:33;42.05;;;29.60;;
44810;SDS011;30526;52.184;4.476;2023-05-07T01:25:01;49.25;;;30.15;;
44810;SDS011;30526;52.184;4.476;2023-05-07T01:27:27;43.60;;;30.00;;
44810;SDS011;30526;52.184;4.476;2023-05-07T01:29:53;47.77;;;31.33;;
44810;SDS011;30526;52.184;4.476;2023-05-07T01:32:21;46.58;;;29.80;;
44810;SDS011;30526;52.184;4.476;2023-05-07T01:34:49;46.35;;;29.90;;
44810;SDS011;30526;52.184;4.476;2023-05-07T01:37:16;45.72;;;29.58;;
44810;SDS011;30526;52.184;4.476;2023-05-07T01:39:42;46.83;;;29.95;;
44810;SDS011;30526;52.184;4.476;2023-05-07T01:42:08;42.63;;;27.52;;
44810;SDS011;30526;52.184;4.476;2023-05-07T01:44:34;42.85;;;29.33;;
44810;SDS011;30526;52.184;4.476;2023-05-07T01:47:01;46.00;;;28.67;;
44810;SDS011;30526;52.184;4.476;2023-05-07T01:49:27;45.70;;;29.63;;
44810;SDS011;30526;52.184;4.476;2023-05-07T01:51:54;51.13;;;29.52;;
44810;SDS011;30526;52.184;4.476;2023-05-07T01:54:24;44.00;;;30.25;;
44810;SDS011;30526;52.184;4.476;2023-05-07T01:56:52;46.70;;;29.73;;
44810;SDS011;30526;52.184;4.476;2023-05-07T01:59:18;46.00;;;28.98;;
44810;SDS011;30526;52.184;4.476;2023-05-07T02:01:44;45.45;;;29.48;;
44810;SDS011;30526;52.184;4.476;2023-05-07T02:04:10;44.15;;;28.38;;
44810;SDS011;30526;52.184;4.476;2023-05-07T02:06:36;41.50;;;28.30;;
44810;SDS011;30526;52.184;4.476;2023-05-07T02:09:02;45.85;;;27.80;;
44810;SDS011;30526;52.184;4.476;2023-05-07T02:11:28;47.08;;;29.05;;
44810;SDS011;30526;52.184;4.476;2023-05-07T02:13:54;45.50;;;29.92;;
44810;SDS011;30526;52.184;4.476;2023-05-07T02:16:20;45.85;;;28.98;;
44810;SDS011;30526;52.184;4.476;2023-05-07T02:18:47;45.08;;;28.95;;
44810;SDS011;30526;52.184;4.476;2023-05-07T02:21:14;42.33;;;27.77;;
44810;SDS011;30526;52.184;4.476;2023-05-07T02:23:40;44.40;;;27.80;;
44810;SDS011;30526;52.184;4.476;2023-05-07T02:26:06;40.80;;;26.35;;
44810;SDS011;30526;52.184;4.476;2023-05-07T02:28:32;44.88;;;27.05;;
44810;SDS011;30526;52.184;4.476;2023-05-07T02:31:00;41.47;;;26.17;;
44810;SDS011;30526;52.184;4.476;2023-05-07T02:33:26;42.75;;;27.73;;
44810;SDS011;30526;52.184;4.476;2023-05-07T02:35:52;42.63;;;25.23;;
44810;SDS011;30526;52.184;4.476;2023-05-07T02:38:18;36.58;;;24.05;;
44810;SDS011;30526;52.184;4.476;2023-05-07T02:40:44;38.45;;;25.70;;
44810;SDS011;30526;52.184;4.476;2023-05-07T02:43:10;36.25;;;25.63;;
44810;SDS011;30526;52.184;4.476;2023-05-07T02:45:36;36.63;;;24.42;;
44810;SDS011;30526;52.184;4.476;2023-05-07T02:48:03;36.42;;;24.10;;
44810;SDS011;30526;52.184;4.476;2023-05-07T02:50:29;36.10;;;24.27;;
44810;SDS011;30526;52.184;4.476;2023-05-07T02:52:55;38.28;;;25.15;;
44810;SDS011;30526;52.184;4.476;2023-05-07T02:55:21;38.17;;;24.60;;
44810;SDS011;30526;52.184;4.476;2023-05-07T02:57:47;34.85;;;23.45;;
44810;SDS011;30526;52.184;4.476;2023-05-07T03:00:14;35.63;;;23.25;;
44810;SDS011;30526;52.184;4.476;2023-05-07T03:05:06;32.80;;;22.63;;
44810;SDS011;30526;52.184;4.476;2023-05-07T03:07:33;33.45;;;23.10;;
44810;SDS011;30526;52.184;4.476;2023-05-07T03:09:59;37.97;;;24.92;;
44810;SDS011;30526;52.184;4.476;2023-05-07T03:12:25;39.63;;;23.77;;
44810;SDS011;30526;52.184;4.476;2023-05-07T03:14:51;32.83;;;23.42;;
44810;SDS011;30526;52.184;4.476;2023-05-07T03:17:17;38.10;;;24.02;;
44810;SDS011;30526;52.184;4.476;2023-05-07T03:19:43;34.53;;;23.73;;
44810;SDS011;30526;52.184;4.476;2023-05-07T03:22:09;35.67;;;23.00;;
44810;SDS011;30526;52.184;4.476;2023-05-07T03:24:35;31.48;;;23.05;;
44810;SDS011;30526;52.184;4.476;2023-05-07T03:27:01;31.27;;;23.10;;
44810;SDS011;30526;52.184;4.476;2023-05-07T03:29:27;31.83;;;23.25;;
44810;SDS011;30526;52.184;4.476;2023-05-07T03:31:53;30.48;;;22.88;;
44810;SDS011;30526;52.184;4.476;2023-05-07T03:34:19;36.15;;;22.55;;
44810;SDS011;30526;52.184;4.476;2023-05-07T03:36:50;31.95;;;21.80;;
44810;SDS011;30526;52.184;4.476;2023-05-07T03:39:16;32.53;;;20.98;;
44810;SDS011;30526;52.184;4.476;2023-05-07T03:41:42;31.33;;;21.40;;
44810;SDS011;30526;52.184;4.476;2023-05-07T03:44:08;34.05;;;21.92;;
44810;SDS011;30526;52.184;4.476;2023-05-07T03:46:34;32.05;;;21.75;;
44810;SDS011;30526;52.184;4.476;2023-05-07T03:49:00;29.50;;;21.80;;
44810;SDS011;30526;52.184;4.476;2023-05-07T03:51:26;30.90;;;22.65;;
44810;SDS011;30526;52.184;4.476;2023-05-07T03:53:52;33.13;;;22.65;;
44810;SDS011;30526;52.184;4.476;2023-05-07T03:56:18;29.33;;;22.02;;
44810;SDS011;30526;52.184;4.476;2023-05-07T03:58:44;30.95;;;21.33;;
44810;SDS011;30526;52.184;4.476;2023-05-07T04:01:10;29.88;;;21.02;;
44810;SDS011;30526;52.184;4.476;2023-05-07T04:03:37;27.93;;;20.50;;
44810;SDS011;30526;52.184;4.476;2023-05-07T04:06:03;27.33;;;20.30;;
44810;SDS011;30526;52.184;4.476;2023-05-07T04:08:29;29.63;;;21.25;;
44810;SDS011;30526;52.184;4.476;2023-05-07T04:10:58;28.00;;;19.87;;
44810;SDS011;30526;52.184;4.476;2023-05-07T04:13:24;25.05;;;18.90;;
44810;SDS011;30526;52.184;4.476;2023-05-07T04:15:51;27.48;;;20.00;;
44810;SDS011;30526;52.184;4.476;2023-05-07T04:18:17;32.03;;;20.30;;
44810;SDS011;30526;52.184;4.476;2023-05-07T04:20:43;23.95;;;19.30;;
44810;SDS011;30526;52.184;4.476;2023-05-07T04:23:09;30.02;;;20.05;;
44810;SDS011;30526;52.184;4.476;2023-05-07T04:25:35;26.67;;;19.60;;
44810;SDS011;30526;52.184;4.476;2023-05-07T04:28:01;26.70;;;19.45;;
44810;SDS011;30526;52.184;4.476;2023-05-07T04:30:27;25.05;;;19.52;;
44810;SDS011;30526;52.184;4.476;2023-05-07T04:32:53;28.17;;;20.38;;
44810;SDS011;30526;52.184;4.476;2023-05-07T04:35:19;27.75;;;19.40;;
44810;SDS011;30526;52.184;4.476;2023-05-07T04:37:45;25.00;;;18.65;;
44810;SDS011;30526;52.184;4.476;2023-05-07T04:40:11;24.20;;;18.52;;
44810;SDS011;30526;52.184;4.476;2023-05-07T04:42:37;23.55;;;18.23;;
44810;SDS011;30526;52.184;4.476;2023-05-07T04:45:03;24.90;;;19.25;;
44810;SDS011;30526;52.184;4.476;2023-05-07T04:47:30;24.63;;;18.43;;
44810;SDS011;30526;52.184;4.476;2023-05-07T04:49:57;22.27;;;18.05;;
44810;SDS011;30526;52.184;4.476;2023-05-07T04:52:23;27.20;;;17.40;;
44810;SDS011;30526;52.184;4.476;2023-05-07T04:54:49;24.15;;;18.45;;
44810;SDS011;30526;52.184;4.476;2023-05-07T04:57:15;25.35;;;18.33;;
44810;SDS011;30526;52.184;4.476;2023-05-07T04:59:42;21.50;;;17.17;;
44810;SDS011;30526;52.184;4.476;2023-05-07T05:02:09;23.33;;;16.88;;
44810;SDS011;30526;52.184;4.476;2023-05-07T05:04:35;15.05;;;11.77;;
44810;SDS011;30526;52.184;4.476;2023-05-07T05:07:01;24.80;;;18.30;;
44810;SDS011;30526;52.184;4.476;2023-05-07T05:09:29;13.90;;;11.80;;
44810;SDS011;30526;52.184;4.476;2023-05-07T05:11:55;22.85;;;17.25;;
44810;SDS011;30526;52.184;4.476;2023-05-07T05:14:21;19.73;;;16.65;;
44810;SDS011;30526;52.184;4.476;2023-05-07T05:16:47;22.05;;;18.17;;
44810;SDS011;30526;52.184;4.476;2023-05-07T05:19:13;23.48;;;16.08;;
44810;SDS011;30526;52.184;4.476;2023-05-07T05:21:39;22.35;;;17.77;;
44810;SDS011;30526;52.184;4.476;2023-05-07T05:24:05;23.30;;;17.30;;
44810;SDS011;30526;52.184;4.476;2023-05-07T05:26:31;24.40;;;17.45;;
44810;SDS011;30526;52.184;4.476;2023-05-07T05:28:57;20.80;;;17.55;;
44810;SDS011;30526;52.184;4.476;2023-05-07T05:31:23;22.67;;;17.55;;
44810;SDS011;30526;52.184;4.476;2023-05-07T05:33:49;22.70;;;17.02;;
44810;SDS011;30526;52.184;4.476;2023-05-07T05:36:14;23.80;;;17.52;;
44810;SDS011;30526;52.184;4.476;2023-05-07T05:38:40;22.20;;;16.02;;
44810;SDS011;30526;52.184;4.476;2023-05-07T05:41:06;24.02;;;16.67;;
44810;SDS011;30526;52.184;4.476;2023-05-07T05:43:33;19.90;;;15.70;;
44810;SDS011;30526;52.184;4.476;2023-05-07T05:45:59;19.23;;;15.10;;
44810;SDS011;30526;52.184;4.476;2023-05-07T05:48:25;19.20;;;15.50;;
44810;SDS011;30526;52.184;4.476;2023-05-07T05:50:51;20.02;;;14.50;;
44810;SDS011;30526;52.184;4.476;2023-05-07T05:53:17;22.00;;;14.48;;
44810;SDS011;30526;52.184;4.476;2023-05-07T05:55:43;19.63;;;14.10;;
44810;SDS011;30526;52.184;4.476;2023-05-07T05:58:09;17.35;;;14.00;;
44810;SDS011;30526;52.184;4.476;2023-05-07T06:00:35;18.30;;;14.45;;
44810;SDS011;30526;52.184;4.476;2023-05-07T06:03:01;18.55;;;14.02;;
44810;SDS011;30526;52.184;4.476;2023-05-07T06:05:27;17.33;;;13.52;;
44810;SDS011;30526;52.184;4.476;2023-05-07T06:07:53;16.70;;;14.27;;
44810;SDS011;30526;52.184;4.476;2023-05-07T06:10:19;21.90;;;14.88;;
44810;SDS011;30526;52.184;4.476;2023-05-07T06:12:45;18.55;;;14.50;;
44810;SDS011;30526;52.184;4.476;2023-05-07T06:15:12;19.02;;;13.88;;
44810;SDS011;30526;52.184;4.476;2023-05-07T06:17:38;18.73;;;14.20;;
44810;SDS011;30526;52.184;4.476;2023-05-07T06:20:04;18.10;;;14.48;;
44810;SDS011;30526;52.184;4.476;2023-05-07T06:22:30;18.90;;;14.60;;
44810;SDS011;30526;52.184;4.476;2023-05-07T06:24:56;19.10;;;15.18;;
44810;SDS011;30526;52.184;4.476;2023-05-07T06:27:22;20.45;;;15.43;;
44810;SDS011;30526;52.184;4.476;2023-05-07T06:29:48;19.52;;;15.77;;
44810;SDS011;30526;52.184;4.476;2023-05-07T06:32:15;24.60;;;15.73;;
44810;SDS011;30526;52.184;4.476;2023-05-07T06:34:42;20.13;;;12.13;;
44810;SDS011;30526;52.184;4.476;2023-05-07T06:37:08;20.10;;;15.95;;
44810;SDS011;30526;52.184;4.476;2023-05-07T06:39:34;20.52;;;15.63;;
44810;SDS011;30526;52.184;4.476;2023-05-07T06:42:00;20.15;;;16.08;;
44810;SDS011;30526;52.184;4.476;2023-05-07T06:44:29;25.90;;;18.45;;
44810;SDS011;30526;52.184;4.476;2023-05-07T06:46:56;21.15;;;16.63;;
44810;SDS011;30526;52.184;4.476;2023-05-07T06:49:22;21.73;;;16.17;;
44810;SDS011;30526;52.184;4.476;2023-05-07T06:51:48;22.20;;;17.40;;
44810;SDS011;30526;52.184;4.476;2023-05-07T06:54:14;24.05;;;17.70;;
44810;SDS011;30526;52.184;4.476;2023-05-07T06:56:40;25.75;;;18.95;;
44810;SDS011;30526;52.184;4.476;2023-05-07T06:59:07;27.75;;;18.10;;
44810;SDS011;30526;52.184;4.476;2023-05-07T07:01:32;25.35;;;17.52;;
44810;SDS011;30526;52.184;4.476;2023-05-07T07:03:58;24.35;;;17.10;;
44810;SDS011;30526;52.184;4.476;2023-05-07T07:06:25;25.67;;;17.93;;
44810;SDS011;30526;52.184;4.476;2023-05-07T07:08:51;24.48;;;18.17;;
44810;SDS011;30526;52.184;4.476;2023-05-07T07:11:17;22.60;;;18.45;;
44810;SDS011;30526;52.184;4.476;2023-05-07T07:13:43;26.75;;;19.30;;
44810;SDS011;30526;52.184;4.476;2023-05-07T07:16:10;25.15;;;18.20;;
44810;SDS011;30526;52.184;4.476;2023-05-07T07:18:36;24.45;;;17.63;;
44810;SDS011;30526;52.184;4.476;2023-05-07T07:21:02;23.92;;;17.98;;
44810;SDS011;30526;52.184;4.476;2023-05-07T07:23:28;22.88;;;17.52;;
44810;SDS011;30526;52.184;4.476;2023-05-07T07:25:54;26.75;;;17.77;;
44810;SDS011;30526;52.184;4.476;2023-05-07T07:28:20;24.23;;;17.50;;
44810;SDS011;30526;52.184;4.476;2023-05-07T07:30:47;22.00;;;17.55;;
44810;SDS011;30526;52.184;4.476;2023-05-07T07:33:13;22.33;;;17.25;;
44810;SDS011;30526;52.184;4.476;2023-05-07T07:35:39;24.42;;;17.23;;
44810;SDS011;30526;52.184;4.476;2023-05-07T07:38:05;21.75;;;17.02;;
44810;SDS011;30526;52.184;4.476;2023-05-07T07:40:31;25.08;;;17.50;;
44810;SDS011;30526;52.184;4.476;2023-05-07T07:42:57;23.35;;;16.95;;
44810;SDS011;30526;52.184;4.476;2023-05-07T07:45:23;24.85;;;17.30;;
44810;SDS011;30526;52.184;4.476;2023-05-07T07:47:49;22.73;;;16.20;;
44810;SDS011;30526;52.184;4.476;2023-05-07T07:50:15;23.42;;;17.00;;
44810;SDS011;30526;52.184;4.476;2023-05-07T07:52:41;22.88;;;16.73;;
44810;SDS011;30526;52.184;4.476;2023-05-07T07:55:07;20.38;;;16.35;;
44810;SDS011;30526;52.184;4.476;2023-05-07T07:57:34;20.53;;;16.23;;
44810;SDS011;30526;52.184;4.476;2023-05-07T08:00:00;21.77;;;16.73;;
44810;SDS011;30526;52.184;4.476;2023-05-07T08:02:26;22.92;;;16.17;;
44810;SDS011;30526;52.184;4.476;2023-05-07T08:04:52;19.92;;;15.20;;
44810;SDS011;30526;52.184;4.476;2023-05-07T08:07:18;21.02;;;15.15;;
44810;SDS011;30526;52.184;4.476;2023-05-07T08:09:45;22.08;;;14.45;;
44810;SDS011;30526;52.184;4.476;2023-05-07T08:12:12;20.80;;;14.90;;
44810;SDS011;30526;52.184;4.476;2023-05-07T08:14:38;22.02;;;15.68;;
44810;SDS011;30526;52.184;4.476;2023-05-07T08:17:04;19.00;;;13.27;;
44810;SDS011;30526;52.184;4.476;2023-05-07T08:19:30;16.15;;;11.18;;
44810;SDS011;30526;52.184;4.476;2023-05-07T08:21:56;15.52;;;10.95;;
44810;SDS011;30526;52.184;4.476;2023-05-07T08:24:22;17.63;;;11.32;;
44810;SDS011;30526;52.184;4.476;2023-05-07T08:26:48;18.02;;;11.85;;
44810;SDS011;30526;52.184;4.476;2023-05-07T08:29:14;15.07;;;9.80;;
44810;SDS011;30526;52.184;4.476;2023-05-07T08:31:41;16.40;;;8.93;;
44810;SDS011;30526;52.184;4.476;2023-05-07T08:34:07;12.38;;;7.75;;
44810;SDS011;30526;52.184;4.476;2023-05-07T08:36:33;15.60;;;8.93;;
44810;SDS011;30526;52.184;4.476;2023-05-07T08:38:59;13.98;;;9.50;;
44810;SDS011;30526;52.184;4.476;2023-05-07T08:41:25;19.05;;;8.40;;
44810;SDS011;30526;52.184;4.476;2023-05-07T08:43:51;13.45;;;8.15;;
44810;SDS011;30526;52.184;4.476;2023-05-07T08:46:18;12.63;;;8.83;;
44810;SDS011;30526;52.184;4.476;2023-05-07T08:48:45;13.63;;;5.75;;
44810;SDS011;30526;52.184;4.476;2023-05-07T08:51:15;13.40;;;7.75;;
44810;SDS011;30526;52.184;4.476;2023-05-07T08:53:42;12.30;;;7.63;;
44810;SDS011;30526;52.184;4.476;2023-05-07T08:56:08;11.43;;;7.80;;
44810;SDS011;30526;52.184;4.476;2023-05-07T08:58:34;13.57;;;7.63;;
44810;SDS011;30526;52.184;4.476;2023-05-07T09:01:02;13.18;;;7.40;;
44810;SDS011;30526;52.184;4.476;2023-05-07T09:03:30;15.70;;;8.57;;
44810;SDS011;30526;52.184;4.476;2023-05-07T09:05:56;10.75;;;7.22;;
44810;SDS011;30526;52.184;4.476;2023-05-07T09:08:24;17.27;;;8.05;;
44810;SDS011;30526;52.184;4.476;2023-05-07T09:10:50;17.15;;;7.60;;
44810;SDS011;30526;52.184;4.476;2023-05-07T09:13:16;11.10;;;7.23;;
44810;SDS011;30526;52.184;4.476;2023-05-07T09:15:43;10.00;;;6.63;;
44810;SDS011;30526;52.184;4.476;2023-05-07T09:18:09;9.30;;;6.05;;
44810;SDS011;30526;52.184;4.476;2023-05-07T09:20:38;9.32;;;6.13;;
44810;SDS011;30526;52.184;4.476;2023-05-07T09:23:04;10.77;;;6.28;;
44810;SDS011;30526;52.184;4.476;2023-05-07T09:25:30;17.40;;;6.47;;
44810;SDS011;30526;52.184;4.476;2023-05-07T09:30:26;12.37;;;5.87;;
44810;SDS011;30526;52.184;4.476;2023-05-07T09:32:53;10.95;;;7.07;;
44810;SDS011;30526;52.184;4.476;2023-05-07T09:35:19;12.30;;;5.60;;
44810;SDS011;30526;52.184;4.476;2023-05-07T09:37:46;10.10;;;6.93;;
44810;SDS011;30526;52.184;4.476;2023-05-07T09:40:26;13.75;;;6.60;;
44810;SDS011;30526;52.184;4.476;2023-05-07T09:42:52;7.72;;;5.32;;
44810;SDS011;30526;52.184;4.476;2023-05-07T09:45:25;12.05;;;5.00;;
44810;SDS011;30526;52.184;4.476;2023-05-07T09:47:55;11.05;;;4.93;;
44810;SDS011;30526;52.184;4.476;2023-05-07T09:51:09;8.88;;;5.07;;
44810;SDS011;30526;52.184;4.476;2023-05-07T09:53:08;6.82;;;5.10;;
44810;SDS011;30526;52.184;4.476;2023-05-07T09:55:35;8.60;;;3.90;;
44810;SDS011;30526;52.184;4.476;2023-05-07T09:58:02;10.48;;;4.38;;
44810;SDS011;30526;52.184;4.476;2023-05-07T10:00:30;8.65;;;5.65;;
44810;SDS011;30526;52.184;4.476;2023-05-07T10:02:57;8.00;;;4.60;;
44810;SDS011;30526;52.184;4.476;2023-05-07T10:05:23;7.90;;;4.20;;
44810;SDS011;30526;52.184;4.476;2023-05-07T10:07:49;11.55;;;4.95;;
44810;SDS011;30526;52.184;4.476;2023-05-07T10:10:16;8.02;;;4.65;;
44810;SDS011;30526;52.184;4.476;2023-05-07T10:12:43;8.77;;;4.00;;
44810;SDS011;30526;52.184;4.476;2023-05-07T10:15:09;8.75;;;5.35;;
44810;SDS011;30526;52.184;4.476;2023-05-07T10:17:39;9.20;;;5.75;;
44810;SDS011;30526;52.184;4.476;2023-05-07T10:20:05;12.52;;;5.47;;
44810;SDS011;30526;52.184;4.476;2023-05-07T10:22:32;14.10;;;6.03;;
44810;SDS011;30526;52.184;4.476;2023-05-07T10:24:59;12.70;;;5.78;;
44810;SDS011;30526;52.184;4.476;2023-05-07T10:27:28;6.20;;;4.60;;
44810;SDS011;30526;52.184;4.476;2023-05-07T10:32:36;9.60;;;6.28;;
44810;SDS011;30526;52.184;4.476;2023-05-07T10:35:05;8.60;;;5.45;;
44810;SDS011;30526;52.184;4.476;2023-05-07T10:37:32;9.07;;;4.22;;
44810;SDS011;30526;52.184;4.476;2023-05-07T10:39:58;8.18;;;4.45;;
44810;SDS011;30526;52.184;4.476;2023-05-07T10:42:24;8.23;;;4.90;;
44810;SDS011;30526;52.184;4.476;2023-05-07T10:44:50;9.50;;;4.45;;
44810;SDS011;30526;52.184;4.476;2023-05-07T10:47:16;11.55;;;6.18;;
44810;SDS011;30526;52.184;4.476;2023-05-07T10:54:39;10.88;;;6.13;;
44810;SDS011;30526;52.184;4.476;2023-05-07T10:59:50;9.82;;;3.25;;
44810;SDS011;30526;52.184;4.476;2023-05-07T11:02:17;9.05;;;5.28;;
44810;SDS011;30526;52.184;4.476;2023-05-07T11:04:43;7.75;;;4.20;;
44810;SDS011;30526;52.184;4.476;2023-05-07T11:09:55;10.18;;;5.85;;
44810;SDS011;30526;52.184;4.476;2023-05-07T11:15:08;11.32;;;5.50;;
44810;SDS011;30526;52.184;4.476;2023-05-07T11:17:34;9.25;;;5.25;;
44810;SDS011;30526;52.184;4.476;2023-05-07T11:20:17;10.73;;;4.75;;
44810;SDS011;30526;52.184;4.476;2023-05-07T11:22:43;6.85;;;4.05;;
44810;SDS011;30526;52.184;4.476;2023-05-07T11:25:09;5.32;;;2.95;;
44810;SDS011;30526;52.184;4.476;2023-05-07T11:27:36;8.43;;;4.65;;
44810;SDS011;30526;52.184;4.476;2023-05-07T11:30:02;8.32;;;4.93;;
44810;SDS011;30526;52.184;4.476;2023-05-07T11:32:28;8.90;;;4.43;;
44810;SDS011;30526;52.184;4.476;2023-05-07T11:34:55;10.38;;;5.53;;
44810;SDS011;30526;52.184;4.476;2023-05-07T11:37:22;10.82;;;5.40;;
44810;SDS011;30526;52.184;4.476;2023-05-07T11:39:48;11.23;;;5.38;;
44810;SDS011;30526;52.184;4.476;2023-05-07T11:42:38;12.48;;;4.70;;
44810;SDS011;30526;52.184;4.476;2023-05-07T11:45:06;8.35;;;4.93;;
44810;SDS011;30526;52.184;4.476;2023-05-07T11:47:33;10.77;;;4.47;;
44810;SDS011;30526;52.184;4.476;2023-05-07T11:50:06;8.88;;;4.22;;
44810;SDS011;30526;52.184;4.476;2023-05-07T11:52:33;11.55;;;9.05;;
44810;SDS011;30526;52.184;4.476;2023-05-07T11:54:59;15.95;;;11.23;;
44810;SDS011;30526;52.184;4.476;2023-05-07T11:57:26;16.98;;;10.63;;
44810;SDS011;30526;52.184;4.476;2023-05-07T11:59:58;20.30;;;10.98;;
44810;SDS011;30526;52.184;4.476;2023-05-07T12:02:26;17.88;;;11.68;;
44810;SDS011;30526;52.184;4.476;2023-05-07T12:04:53;20.25;;;11.82;;
44810;SDS011;30526;52.184;4.476;2023-05-07T12:07:20;20.08;;;12.70;;
44810;SDS011;30526;52.184;4.476;2023-05-07T12:09:46;20.93;;;11.30;;
44810;SDS011;30526;52.184;4.476;2023-05-07T12:12:12;24.63;;;11.63;;
44810;SDS011;30526;52.184;4.476;2023-05-07T12:14:44;24.13;;;11.98;;
44810;SDS011;30526;52.184;4.476;2023-05-07T12:17:10;24.05;;;11.55;;
44810;SDS011;30526;52.184;4.476;2023-05-07T12:19:37;22.17;;;11.18;;
44810;SDS011;30526;52.184;4.476;2023-05-07T12:22:03;22.80;;;12.82;;
44810;SDS011;30526;52.184;4.476;2023-05-07T12:24:49;25.13;;;12.50;;
44810;SDS011;30526;52.184;4.476;2023-05-07T12:27:16;24.88;;;11.98;;
44810;SDS011;30526;52.184;4.476;2023-05-07T12:29:49;17.13;;;9.68;;
44810;SDS011;30526;52.184;4.476;2023-05-07T12:32:15;23.73;;;13.25;;
44810;SDS011;30526;52.184;4.476;2023-05-07T12:34:42;23.08;;;11.88;;
44810;SDS011;30526;52.184;4.476;2023-05-07T12:37:08;33.30;;;14.57;;
44810;SDS011;30526;52.184;4.476;2023-05-07T12:39:35;23.63;;;12.05;;
44810;SDS011;30526;52.184;4.476;2023-05-07T12:42:01;37.50;;;16.58;;
44810;SDS011;30526;52.184;4.476;2023-05-07T12:44:31;36.25;;;16.50;;
44810;SDS011;30526;52.184;4.476;2023-05-07T12:46:57;31.77;;;16.90;;
44810;SDS011;30526;52.184;4.476;2023-05-07T12:49:23;41.88;;;15.70;;
44810;SDS011;30526;52.184;4.476;2023-05-07T12:51:50;34.35;;;15.77;;
44810;SDS011;30526;52.184;4.476;2023-05-07T12:54:29;28.45;;;15.70;;
44810;SDS011;30526;52.184;4.476;2023-05-07T12:57:02;35.70;;;15.23;;
44810;SDS011;30526;52.184;4.476;2023-05-07T12:59:46;26.23;;;15.10;;
44810;SDS011;30526;52.184;4.476;2023-05-07T13:02:12;28.58;;;13.57;;
44810;SDS011;30526;52.184;4.476;2023-05-07T13:04:38;20.90;;;11.48;;
44810;SDS011;30526;52.184;4.476;2023-05-07T13:07:04;24.20;;;13.18;;
44810;SDS011;30526;52.184;4.476;2023-05-07T13:09:31;20.60;;;11.60;;
44810;SDS011;30526;52.184;4.476;2023-05-07T13:11:57;18.95;;;11.15;;
44810;SDS011;30526;52.184;4.476;2023-05-07T13:14:26;20.00;;;11.80;;
44810;SDS011;30526;52.184;4.476;2023-05-07T13:16:52;21.88;;;11.10;;
44810;SDS011;30526;52.184;4.476;2023-05-07T13:19:18;17.98;;;10.55;;
44810;SDS011;30526;52.184;4.476;2023-05-07T13:21:44;18.67;;;9.82;;
44810;SDS011;30526;52.184;4.476;2023-05-07T13:24:10;14.80;;;8.93;;
44810;SDS011;30526;52.184;4.476;2023-05-07T13:26:36;15.48;;;9.02;;
44810;SDS011;30526;52.184;4.476;2023-05-07T13:29:02;15.02;;;9.20;;
44810;SDS011;30526;52.184;4.476;2023-05-07T13:31:28;15.05;;;7.90;;
44810;SDS011;30526;52.184;4.476;2023-05-07T13:33:55;11.47;;;7.70;;
44810;SDS011;30526;52.184;4.476;2023-05-07T13:36:21;18.52;;;9.55;;
44810;SDS011;30526;52.184;4.476;2023-05-07T13:38:47;18.85;;;9.73;;
44810;SDS011;30526;52.184;4.476;2023-05-07T13:41:13;12.38;;;8.52;;
44810;SDS011;30526;52.184;4.476;2023-05-07T13:43:39;16.27;;;9.30;;
44810;SDS011;30526;52.184;4.476;2023-05-07T13:46:05;13.30;;;8.50;;
44810;SDS011;30526;52.184;4.476;2023-05-07T13:48:31;18.67;;;9.35;;
44810;SDS011;30526;52.184;4.476;2023-05-07T13:50:57;20.15;;;10.05;;
44810;SDS011;30526;52.184;4.476;2023-05-07T13:53:23;23.88;;;11.50;;
44810;SDS011;30526;52.184;4.476;2023-05-07T13:55:50;16.77;;;12.80;;
44810;SDS011;30526;52.184;4.476;2023-05-07T13:58:16;25.70;;;15.80;;
44810;SDS011;30526;52.184;4.476;2023-05-07T14:00:42;21.38;;;12.95;;
44810;SDS011;30526;52.184;4.476;2023-05-07T14:03:08;29.87;;;15.13;;
44810;SDS011;30526;52.184;4.476;2023-05-07T14:05:35;23.98;;;16.45;;
44810;SDS011;30526;52.184;4.476;2023-05-07T14:08:01;25.27;;;17.88;;
44810;SDS011;30526;52.184;4.476;2023-05-07T14:10:28;25.35;;;18.10;;
44810;SDS011;30526;52.184;4.476;2023-05-07T14:12:55;32.58;;;18.55;;
44810;SDS011;30526;52.184;4.476;2023-05-07T14:15:21;30.30;;;19.67;;
44810;SDS011;30526;52.184;4.476;2023-05-07T14:17:47;35.15;;;19.83;;
44810;SDS011;30526;52.184;4.476;2023-05-07T14:20:13;36.47;;;21.63;;
44810;SDS011;30526;52.184;4.476;2023-05-07T14:22:39;30.13;;;21.60;;
44810;SDS011;30526;52.184;4.476;2023-05-07T14:25:05;33.65;;;21.70;;
44810;SDS011;30526;52.184;4.476;2023-05-07T14:27:32;37.03;;;22.25;;
44810;SDS011;30526;52.184;4.476;2023-05-07T14:29:58;34.05;;;23.30;;
44810;SDS011;30526;52.184;4.476;2023-05-07T14:32:23;31.85;;;22.40;;
44810;SDS011;30526;52.184;4.476;2023-05-07T14:34:49;39.17;;;24.80;;
44810;SDS011;30526;52.184;4.476;2023-05-07T14:37:15;38.38;;;24.10;;
44810;SDS011;30526;52.184;4.476;2023-05-07T14:42:08;31.48;;;21.50;;
44810;SDS011;30526;52.184;4.476;2023-05-07T14:44:35;31.90;;;22.08;;
44810;SDS011;30526;52.184;4.476;2023-05-07T14:47:01;33.20;;;20.40;;